createdAt,value
2018-02-08T00:02:08.440Z,35.20
2018-02-08T00:04:37.285Z,29.50
2018-02-08T00:07:06.213Z,31.83
2018-02-08T00:09:35.144Z,31.53
2018-02-08T00:12:04.013Z,27.17
2018-02-08T00:14:33.339Z,27.03
2018-02-08T00:17:02.188Z,34.23
2018-02-08T00:19:31.655Z,31.73
2018-02-08T00:22:00.506Z,31.27
2018-02-08T00:24:29.346Z,28.10
2018-02-08T00:26:58.194Z,27.17
2018-02-08T00:29:27.029Z,32.33
2018-02-08T00:31:55.865Z,39.37
2018-02-08T00:34:24.725Z,37.10
2018-02-08T00:36:53.600Z,34.80
2018-02-08T00:39:22.467Z,28.27
2018-02-08T00:41:51.334Z,30.00
2018-02-08T00:44:20.173Z,34.37
2018-02-08T00:46:49.064Z,23.87
2018-02-08T00:49:17.964Z,31.33
2018-02-08T00:51:46.815Z,27.07
2018-02-08T00:54:15.657Z,29.70
2018-02-08T00:56:45.069Z,29.70
2018-02-08T00:59:13.918Z,29.53
2018-02-08T01:01:42.759Z,30.80
2018-02-08T01:04:11.619Z,35.03
2018-02-08T01:06:40.462Z,28.87
2018-02-08T01:09:09.332Z,24.13
2018-02-08T01:11:38.203Z,27.53
2018-02-08T01:14:07.044Z,22.67
2018-02-08T01:16:35.907Z,24.87
2018-02-08T01:19:04.771Z,20.70
2018-02-08T01:21:33.630Z,22.23
2018-02-08T01:24:02.500Z,25.20
2018-02-08T01:26:31.359Z,27.10
2018-02-08T01:29:00.219Z,23.83
2018-02-08T01:31:29.426Z,20.93
2018-02-08T01:33:58.292Z,19.73
2018-02-08T01:36:27.149Z,20.37
2018-02-08T01:38:55.993Z,20.73
2018-02-08T01:41:24.881Z,22.90
2018-02-08T01:43:53.723Z,22.30
2018-02-08T01:46:22.569Z,18.70
2018-02-08T01:48:51.488Z,22.20
2018-02-08T01:51:20.331Z,23.77
2018-02-08T01:53:49.234Z,23.77
2018-02-08T01:56:18.484Z,23.13
2018-02-08T01:58:47.331Z,19.57
2018-02-08T02:01:16.197Z,21.30
2018-02-08T02:03:45.045Z,22.70
2018-02-08T02:06:13.882Z,20.73
2018-02-08T02:08:42.707Z,20.27
2018-02-08T02:11:11.658Z,21.87
2018-02-08T02:13:40.509Z,20.57
2018-02-08T02:16:09.936Z,21.20
2018-02-08T02:18:39.724Z,19.33
2018-02-08T02:21:08.575Z,19.13
2018-02-08T02:23:37.447Z,18.93
2018-02-08T02:26:06.343Z,21.17
2018-02-08T02:28:35.218Z,22.53
2018-02-08T02:31:04.098Z,21.83
2018-02-08T02:33:32.947Z,23.83
2018-02-08T02:36:01.791Z,21.33
2018-02-08T02:38:31.321Z,20.57
2018-02-08T02:41:00.179Z,22.33
2018-02-08T02:43:29.014Z,23.67
2018-02-08T02:45:57.909Z,22.83
2018-02-08T02:48:27.545Z,17.07
2018-02-08T02:50:56.388Z,26.73
2018-02-08T02:53:25.294Z,22.37
2018-02-08T02:55:54.131Z,19.93
2018-02-08T02:58:23.020Z,27.33
2018-02-08T03:00:52.861Z,26.33
2018-02-08T03:03:21.729Z,19.47
2018-02-08T03:05:50.603Z,21.30
2018-02-08T03:08:19.459Z,19.70
2018-02-08T03:10:48.379Z,19.13
2018-02-08T03:13:17.233Z,24.50
2018-02-08T03:15:46.095Z,23.40
2018-02-08T03:18:14.955Z,17.50
2018-02-08T03:20:43.795Z,31.70
2018-02-08T03:23:12.653Z,22.40
2018-02-08T03:25:41.519Z,23.43
2018-02-08T03:28:11.015Z,22.27
2018-02-08T03:30:42.705Z,27.83
2018-02-08T03:33:11.591Z,22.83
2018-02-08T03:35:40.435Z,23.70
2018-02-08T03:38:09.345Z,20.47
2018-02-08T03:40:38.229Z,23.83
2018-02-08T03:43:07.063Z,20.20
2018-02-08T03:45:35.921Z,23.37
2018-02-08T03:48:04.777Z,19.07
2018-02-08T03:50:33.623Z,22.00
2018-02-08T03:53:02.494Z,23.60
2018-02-08T03:55:31.405Z,23.73
2018-02-08T03:58:00.304Z,26.23
2018-02-08T04:00:29.159Z,28.20
2018-02-08T04:02:58.052Z,26.93
2018-02-08T04:05:27.580Z,27.60
2018-02-08T04:07:56.439Z,27.70
2018-02-08T04:10:25.531Z,25.47
2018-02-08T04:12:54.414Z,26.30
2018-02-08T04:15:23.346Z,23.00
2018-02-08T04:17:52.179Z,30.07
2018-02-08T04:20:21.032Z,23.57
2018-02-08T04:22:49.890Z,26.10
2018-02-08T04:25:18.717Z,28.10
2018-02-08T04:27:47.638Z,22.13
2018-02-08T04:30:16.471Z,27.17
2018-02-08T04:32:45.535Z,29.80
2018-02-08T04:35:14.401Z,19.57
2018-02-08T04:37:43.242Z,22.60
2018-02-08T04:40:18.096Z,23.43
2018-02-08T04:42:53.626Z,28.30
2018-02-08T04:45:28.518Z,25.67
2018-02-08T04:48:03.306Z,26.13
2018-02-08T04:50:32.218Z,26.40
2018-02-08T04:53:01.098Z,31.90
2018-02-08T04:55:29.960Z,30.83
2018-02-08T04:57:58.861Z,31.33
2018-02-08T05:00:27.708Z,39.17
2018-02-08T05:02:56.575Z,33.40
2018-02-08T05:05:25.481Z,26.17
2018-02-08T05:07:54.388Z,30.00
2018-02-08T05:10:23.298Z,22.87
2018-02-08T05:12:52.160Z,26.57
2018-02-08T05:15:21.002Z,26.13
2018-02-08T05:17:49.901Z,24.07
2018-02-08T05:20:18.792Z,26.20
2018-02-08T05:22:47.624Z,26.40
2018-02-08T05:25:16.465Z,24.80
2018-02-08T05:27:45.338Z,30.73
2018-02-08T05:30:14.206Z,30.03
2018-02-08T05:32:43.072Z,29.97
2018-02-08T05:35:11.966Z,29.20
2018-02-08T05:37:41.701Z,25.77
2018-02-08T05:42:43.978Z,27.07
2018-02-08T05:45:12.824Z,26.57
2018-02-08T05:47:41.709Z,28.70
2018-02-08T05:50:10.600Z,26.57
2018-02-08T05:52:40.418Z,33.53
2018-02-08T05:55:09.268Z,29.23
2018-02-08T05:57:38.129Z,28.63
2018-02-08T06:00:06.972Z,32.37
2018-02-08T06:02:35.812Z,25.27
2018-02-08T06:05:04.706Z,29.20
2018-02-08T06:07:33.554Z,33.03
2018-02-08T06:10:02.442Z,27.53
2018-02-08T06:12:31.312Z,25.00
2018-02-08T06:15:00.138Z,24.93
2018-02-08T06:17:29.000Z,25.23
2018-02-08T06:19:57.886Z,29.33
2018-02-08T06:22:26.722Z,34.60
2018-02-08T06:24:55.555Z,26.27
2018-02-08T06:27:24.476Z,26.73
2018-02-08T06:29:53.372Z,28.13
2018-02-08T06:32:22.224Z,28.07
2018-02-08T06:34:51.111Z,25.93
2018-02-08T06:37:20.582Z,27.13
2018-02-08T06:39:50.137Z,27.60
2018-02-08T06:42:19.012Z,26.50
2018-02-08T06:44:48.170Z,28.87
2018-02-08T06:47:20.482Z,31.40
2018-02-08T06:49:49.492Z,30.07
2018-02-08T06:52:18.344Z,30.63
2018-02-08T06:54:47.560Z,34.07
2018-02-08T06:57:16.432Z,36.73
2018-02-08T06:59:45.274Z,36.87
2018-02-08T07:02:14.110Z,35.03
2018-02-08T07:04:43.002Z,32.47
2018-02-08T07:07:12.738Z,28.47
2018-02-08T07:09:41.598Z,32.33
2018-02-08T07:12:10.530Z,33.13
2018-02-08T07:14:40.140Z,36.87
2018-02-08T07:17:09.646Z,43.73
2018-02-08T07:19:38.627Z,45.57
2018-02-08T07:22:07.470Z,45.20
2018-02-08T07:24:36.358Z,42.57
2018-02-08T07:27:05.282Z,35.53
2018-02-08T07:29:34.137Z,40.03
2018-02-08T07:32:02.984Z,44.50
2018-02-08T07:34:31.858Z,39.33
2018-02-08T07:37:00.706Z,32.83
2018-02-08T07:39:29.545Z,38.40
2018-02-08T07:41:58.438Z,35.67
2018-02-08T07:44:27.336Z,30.37
2018-02-08T07:46:56.174Z,29.23
2018-02-08T07:49:25.029Z,34.77
2018-02-08T07:51:54.210Z,36.87
2018-02-08T07:54:24.050Z,36.53
2018-02-08T07:56:52.936Z,36.63
2018-02-08T07:59:21.834Z,36.10
2018-02-08T08:01:50.760Z,33.30
2018-02-08T08:04:19.642Z,33.07
2018-02-08T08:06:48.503Z,38.10
2018-02-08T08:09:17.342Z,34.30
2018-02-08T08:11:46.220Z,36.80
2018-02-08T08:14:15.070Z,30.43
2018-02-08T08:16:43.932Z,34.70
2018-02-08T08:19:12.800Z,33.90
2018-02-08T08:21:41.654Z,30.10
2018-02-08T08:24:11.468Z,29.13
2018-02-08T08:26:40.532Z,34.83
2018-02-08T08:29:09.394Z,30.03
2018-02-08T08:31:38.580Z,28.97
2018-02-08T08:34:07.438Z,27.43
2018-02-08T08:36:36.281Z,29.57
2018-02-08T08:39:05.136Z,28.30
2018-02-08T08:41:34.036Z,30.80
2018-02-08T08:44:02.932Z,27.57
2018-02-08T08:46:31.790Z,31.93
2018-02-08T08:49:00.680Z,29.27
2018-02-08T08:51:29.573Z,30.07
2018-02-08T08:53:58.462Z,31.33
2018-02-08T08:56:27.358Z,33.37
2018-02-08T08:58:56.202Z,30.73
2018-02-08T09:01:25.732Z,31.47
2018-02-08T09:03:54.600Z,33.90
2018-02-08T09:06:23.444Z,32.30
2018-02-08T09:08:52.355Z,33.00
2018-02-08T09:11:21.170Z,32.40
2018-02-08T09:13:50.045Z,34.73
2018-02-08T09:16:19.011Z,32.63
2018-02-08T09:18:47.847Z,34.90
2018-02-08T09:21:16.748Z,31.97
2018-02-08T09:23:45.638Z,30.60
2018-02-08T09:26:14.581Z,32.90
2018-02-08T09:28:43.446Z,32.83
2018-02-08T09:31:12.382Z,34.27
2018-02-08T09:33:41.242Z,36.13
2018-02-08T09:36:10.080Z,32.63
2018-02-08T09:38:38.958Z,37.43
2018-02-08T09:41:07.813Z,32.87
2018-02-08T09:43:36.714Z,33.00
2018-02-08T09:46:05.666Z,37.73
2018-02-08T09:48:34.538Z,36.57
2018-02-08T09:51:03.408Z,36.20
2018-02-08T09:53:32.290Z,41.00
2018-02-08T09:56:01.149Z,32.67
2018-02-08T09:58:30.000Z,34.93
2018-02-08T10:00:58.912Z,36.93
2018-02-08T10:03:27.754Z,31.20
2018-02-08T10:05:56.596Z,32.27
2018-02-08T10:08:25.452Z,30.73
2018-02-08T10:10:54.318Z,36.20
2018-02-08T10:13:23.155Z,37.70
2018-02-08T10:15:52.014Z,29.70
2018-02-08T10:18:20.885Z,38.63
2018-02-08T10:20:49.735Z,35.00
2018-02-08T10:23:18.604Z,32.47
2018-02-08T10:25:47.452Z,33.80
2018-02-08T10:28:16.278Z,52.97
2018-02-08T10:30:45.163Z,34.20
2018-02-08T10:33:14.595Z,34.00
2018-02-08T10:35:44.301Z,33.53
2018-02-08T10:38:13.163Z,35.67
2018-02-08T10:40:42.018Z,34.07
2018-02-08T10:43:10.871Z,35.20
2018-02-08T10:45:40.106Z,31.83
2018-02-08T10:48:08.948Z,31.87
2018-02-08T10:50:37.802Z,31.07
2018-02-08T10:53:06.708Z,33.23
2018-02-08T10:55:35.604Z,31.03
2018-02-08T10:58:04.461Z,31.57
2018-02-08T11:00:34.119Z,33.13
2018-02-08T11:03:03.066Z,34.83
2018-02-08T11:05:31.930Z,30.70
2018-02-08T11:08:01.702Z,39.43
2018-02-08T11:10:30.799Z,34.43
2018-02-08T11:12:59.894Z,29.40
2018-02-08T11:15:29.759Z,32.77
2018-02-08T11:17:58.600Z,29.17
2018-02-08T11:20:27.791Z,29.73
2018-02-08T11:22:57.071Z,31.47
2018-02-08T11:25:25.930Z,29.37
2018-02-08T11:27:54.764Z,31.47
2018-02-08T11:30:23.637Z,27.97
2018-02-08T11:32:52.502Z,28.67
2018-02-08T11:35:22.017Z,27.83
2018-02-08T11:37:51.591Z,33.87
2018-02-08T11:40:20.431Z,33.33
2018-02-08T11:42:49.303Z,30.10
2018-02-08T11:45:18.173Z,27.77
2018-02-08T11:47:47.071Z,31.73
2018-02-08T11:50:15.936Z,29.97
2018-02-08T11:52:44.800Z,27.73
2018-02-08T11:55:13.635Z,29.67
2018-02-08T11:57:42.482Z,29.93
2018-02-08T12:00:11.410Z,30.50
2018-02-08T12:02:40.267Z,34.07
2018-02-08T12:05:09.111Z,30.10
2018-02-08T12:07:37.973Z,32.10
2018-02-08T12:10:06.806Z,28.27
2018-02-08T12:12:36.573Z,30.87
2018-02-08T12:15:06.108Z,28.00
2018-02-08T12:17:34.970Z,29.97
2018-02-08T12:20:03.835Z,30.00
2018-02-08T12:22:32.695Z,29.37
2018-02-08T12:25:01.551Z,31.70
2018-02-08T12:27:30.931Z,28.43
2018-02-08T12:29:59.797Z,27.53
2018-02-08T12:32:28.770Z,28.17
2018-02-08T12:34:57.687Z,29.30
2018-02-08T12:37:26.581Z,32.20
2018-02-08T12:39:55.415Z,32.77
2018-02-08T12:42:24.271Z,27.73
2018-02-08T12:44:53.371Z,26.97
2018-02-08T12:47:22.271Z,29.23
2018-02-08T12:49:51.371Z,28.13
2018-02-08T12:52:20.241Z,27.97
2018-02-08T12:54:49.197Z,25.93
2018-02-08T12:57:19.087Z,26.57
2018-02-08T12:59:48.861Z,27.27
2018-02-08T13:02:17.703Z,25.43
2018-02-08T13:04:46.581Z,28.67
2018-02-08T13:07:15.531Z,24.93
2018-02-08T13:09:44.407Z,24.60
2018-02-08T13:12:13.278Z,30.43
2018-02-08T13:14:42.219Z,24.83
2018-02-08T13:17:12.731Z,25.30
2018-02-08T13:19:41.579Z,24.97
2018-02-08T13:22:11.471Z,23.10
2018-02-08T13:24:40.315Z,22.80
2018-02-08T13:27:09.175Z,21.83
2018-02-08T13:29:38.407Z,19.90
2018-02-08T13:32:07.281Z,21.93
2018-02-08T13:34:36.169Z,20.40
2018-02-08T13:37:05.044Z,19.30
2018-02-08T13:39:36.574Z,21.67
2018-02-08T13:42:21.251Z,22.47
2018-02-08T13:44:50.227Z,22.93
2018-02-08T13:47:24.781Z,21.40
2018-02-08T13:49:56.535Z,24.03
2018-02-08T13:52:42.185Z,22.00
2018-02-08T13:55:29.845Z,17.60
2018-02-08T13:58:02.306Z,20.67
2018-02-08T14:00:50.891Z,19.83
2018-02-08T14:03:19.787Z,22.27
2018-02-08T14:05:48.639Z,21.10
2018-02-08T14:08:17.492Z,25.10
2018-02-08T14:10:46.365Z,21.13
2018-02-08T14:13:15.208Z,26.07
2018-02-08T14:15:44.528Z,27.57
2018-02-08T14:18:13.452Z,24.20
2018-02-08T14:20:42.317Z,24.53
2018-02-08T14:23:11.156Z,84.60
2018-02-08T14:25:40.061Z,33.00
2018-02-08T14:28:08.895Z,29.47
2018-02-08T14:30:37.728Z,24.03
2018-02-08T14:33:06.605Z,27.27
2018-02-08T14:35:35.446Z,27.70
2018-02-08T14:38:04.309Z,34.63
2018-02-08T14:40:33.184Z,27.03
2018-02-08T14:43:02.014Z,27.63
2018-02-08T14:45:34.315Z,26.57
2018-02-08T14:48:03.205Z,27.33
2018-02-08T14:50:32.047Z,35.70
2018-02-08T14:53:00.895Z,31.20
2018-02-08T14:55:29.823Z,31.13
2018-02-08T14:57:58.716Z,33.97
2018-02-08T15:00:27.560Z,30.77
2018-02-08T15:02:56.410Z,31.33
2018-02-08T15:05:26.091Z,32.83
2018-02-08T15:07:54.953Z,32.87
2018-02-08T15:10:23.796Z,34.23
2018-02-08T15:12:52.655Z,31.37
2018-02-08T15:15:21.494Z,33.50
2018-02-08T15:17:50.323Z,32.70
2018-02-08T15:20:19.198Z,35.77
2018-02-08T15:22:48.110Z,33.57
2018-02-08T15:25:16.981Z,37.20
2018-02-08T15:27:45.844Z,35.90
2018-02-08T15:30:14.672Z,34.40
2018-02-08T15:32:43.528Z,34.43
2018-02-08T15:35:12.438Z,33.30
2018-02-08T15:37:41.304Z,33.40
2018-02-08T15:40:10.194Z,33.70
2018-02-08T15:42:39.093Z,32.33
2018-02-08T15:45:07.956Z,34.33
2018-02-08T15:47:36.816Z,34.90
2018-02-08T15:50:05.661Z,35.20
2018-02-08T15:52:35.261Z,35.97
2018-02-08T15:55:04.170Z,35.07
2018-02-08T15:57:33.049Z,31.93
2018-02-08T16:00:01.903Z,34.57
2018-02-08T16:02:30.989Z,36.97
2018-02-08T16:04:59.874Z,32.20
2018-02-08T16:07:28.767Z,35.90
2018-02-08T16:09:57.628Z,33.33
2018-02-08T16:12:26.466Z,32.87
2018-02-08T16:14:55.336Z,35.50
2018-02-08T16:17:24.172Z,32.13
2018-02-08T16:19:53.380Z,35.57
2018-02-08T16:22:22.280Z,37.40
2018-02-08T16:24:51.122Z,29.30
2018-02-08T16:27:19.989Z,35.27
2018-02-08T16:29:48.884Z,36.53
2018-02-08T16:32:17.891Z,35.23
2018-02-08T16:34:46.758Z,35.57
2018-02-08T16:37:16.481Z,35.60
2018-02-08T16:39:45.338Z,33.37
2018-02-08T16:42:14.234Z,34.27
2018-02-08T16:44:43.155Z,34.77
2018-02-08T16:47:12.814Z,39.38
2018-02-08T16:49:41.679Z,34.40
2018-02-08T16:52:10.550Z,37.37
2018-02-08T16:54:39.430Z,39.42
2018-02-08T16:57:08.296Z,34.63
2018-02-08T16:59:37.966Z,37.40
2018-02-08T17:02:06.832Z,38.77
2018-02-08T17:04:35.812Z,40.23
2018-02-08T17:07:04.702Z,37.30
2018-02-08T17:09:33.572Z,38.10
2018-02-08T17:12:02.520Z,37.23
2018-02-08T17:14:31.428Z,34.77
2018-02-08T17:17:01.828Z,40.13
2018-02-08T17:19:30.694Z,45.63
2018-02-08T17:21:59.588Z,44.73
2018-02-08T17:24:28.494Z,48.03
2018-02-08T17:26:58.182Z,46.77
2018-02-08T17:29:27.042Z,47.40
2018-02-08T17:31:55.879Z,52.50
2018-02-08T17:34:24.779Z,48.50
2018-02-08T17:36:53.648Z,61.20
2018-02-08T17:39:24.397Z,49.73
2018-02-08T17:41:53.453Z,54.30
2018-02-08T17:44:22.312Z,49.93
2018-02-08T17:46:51.184Z,53.73
2018-02-08T17:49:20.074Z,51.70
2018-02-08T17:51:49.038Z,49.70
2018-02-08T17:54:18.940Z,50.13
2018-02-08T17:56:47.804Z,54.30
2018-02-08T17:59:16.649Z,51.70
2018-02-08T18:01:45.505Z,51.93
2018-02-08T18:04:14.374Z,53.87
2018-02-08T18:06:43.223Z,57.40
2018-02-08T18:09:12.052Z,48.70
2018-02-08T18:11:40.921Z,51.83
2018-02-08T18:14:09.797Z,52.17
2018-02-08T18:16:38.649Z,48.90
2018-02-08T18:19:07.522Z,55.67
2018-02-08T18:21:36.361Z,59.47
2018-02-08T18:24:05.240Z,52.30
2018-02-08T18:26:34.131Z,51.20
2018-02-08T18:29:03.249Z,50.90
2018-02-08T18:31:32.786Z,53.23
2018-02-08T18:34:01.662Z,49.73
2018-02-08T18:36:30.520Z,54.70
2018-02-08T18:38:59.358Z,53.93
2018-02-08T18:41:28.216Z,50.37
2018-02-08T18:43:57.790Z,56.23
2018-02-08T18:46:26.651Z,56.57
2018-02-08T18:48:55.508Z,48.27
2018-02-08T18:51:24.382Z,52.43
2018-02-08T18:53:53.632Z,59.33
2018-02-08T18:56:23.448Z,55.13
2018-02-08T18:58:52.309Z,56.43
2018-02-08T19:01:21.780Z,64.37
2018-02-08T19:03:50.624Z,55.07
2018-02-08T19:06:19.546Z,57.40
2018-02-08T19:08:48.441Z,58.23
2018-02-08T19:11:17.570Z,56.37
2018-02-08T19:13:46.791Z,56.37
2018-02-08T19:16:15.670Z,66.67
2018-02-08T19:18:44.508Z,57.87
2018-02-08T19:21:13.369Z,63.03
2018-02-08T19:23:42.244Z,58.53
2018-02-08T19:26:11.144Z,61.60
2018-02-08T19:28:40.020Z,52.87
2018-02-08T19:31:08.880Z,53.87
2018-02-08T19:33:38.058Z,68.10
2018-02-08T19:36:06.912Z,49.37
2018-02-08T19:38:36.236Z,57.00
2018-02-08T19:41:05.148Z,58.17
2018-02-08T19:43:34.784Z,62.60
2018-02-08T19:46:03.665Z,57.13
2018-02-08T19:48:32.570Z,54.70
2018-02-08T19:51:01.437Z,58.53
2018-02-08T19:53:30.297Z,58.63
2018-02-08T19:55:59.158Z,55.67
2018-02-08T19:58:28.006Z,53.33
2018-02-08T20:00:56.883Z,58.97
2018-02-08T20:03:25.734Z,49.53
2018-02-08T20:05:54.591Z,51.80
2018-02-08T20:08:24.012Z,53.80
2018-02-08T20:10:52.873Z,56.50
2018-02-08T20:13:24.150Z,51.83
2018-02-08T20:15:53.125Z,53.07
2018-02-08T20:18:21.967Z,51.87
2018-02-08T20:20:51.838Z,49.27
2018-02-08T20:23:20.709Z,52.40
2018-02-08T20:25:49.576Z,46.23
2018-02-08T20:28:19.119Z,52.53
2018-02-08T20:30:53.956Z,51.53
2018-02-08T20:33:22.798Z,47.17
2018-02-08T20:35:52.256Z,54.60
2018-02-08T20:38:21.279Z,48.17
2018-02-08T20:40:51.875Z,67.97
2018-02-08T20:43:23.673Z,44.83
2018-02-08T20:45:52.523Z,57.30
2018-02-08T20:48:21.390Z,53.13
2018-02-08T20:50:50.259Z,53.13
2018-02-08T20:53:19.474Z,43.47
2018-02-08T20:55:48.329Z,51.20
2018-02-08T20:58:17.191Z,49.27
2018-02-08T21:00:46.028Z,54.90
2018-02-08T21:03:14.881Z,55.07
2018-02-08T21:05:43.739Z,45.97
2018-02-08T21:08:12.604Z,47.13
2018-02-08T21:10:41.436Z,49.97
2018-02-08T21:13:10.328Z,51.80
2018-02-08T21:15:39.175Z,45.33
2018-02-08T21:18:08.621Z,44.27
2018-02-08T21:20:37.511Z,47.83
2018-02-08T21:23:06.357Z,43.30
2018-02-08T21:25:35.217Z,44.17
2018-02-08T21:28:04.861Z,41.53
2018-02-08T21:30:33.733Z,49.13
2018-02-08T21:33:02.807Z,46.13
2018-02-08T21:35:34.097Z,45.43
2018-02-08T21:38:02.969Z,45.13
2018-02-08T21:40:32.627Z,42.87
2018-02-08T21:43:01.487Z,43.67
2018-02-08T21:45:30.334Z,45.60
2018-02-08T21:47:59.207Z,45.03
2018-02-08T21:50:28.057Z,49.90
2018-02-08T21:52:56.916Z,43.27
2018-02-08T21:55:25.794Z,44.10
2018-02-08T21:57:54.880Z,53.10
2018-02-08T22:00:25.860Z,47.77
2018-02-08T22:02:55.115Z,45.37
2018-02-08T22:05:23.959Z,52.00
2018-02-08T22:07:52.827Z,43.77
2018-02-08T22:10:21.690Z,50.43
2018-02-08T22:12:50.567Z,46.47
2018-02-08T22:15:19.444Z,46.33
2018-02-08T22:17:48.306Z,39.67
2018-02-08T22:20:17.169Z,48.37
2018-02-08T22:22:46.765Z,42.33
2018-02-08T22:25:15.709Z,37.53
2018-02-08T22:27:44.801Z,46.13
2018-02-08T22:30:13.685Z,45.77
2018-02-08T22:32:45.891Z,44.57
2018-02-08T22:35:15.678Z,41.30
2018-02-08T22:37:48.967Z,46.40
2018-02-08T22:40:19.037Z,42.90
2018-02-08T22:42:48.185Z,42.73
2018-02-08T22:47:54.453Z,44.90
2018-02-08T22:50:23.327Z,38.97
2018-02-08T22:52:53.605Z,41.30
2018-02-08T22:55:22.941Z,45.43
2018-02-08T22:57:51.805Z,41.23
2018-02-08T23:00:21.243Z,36.00
2018-02-08T23:02:50.141Z,40.10
2018-02-08T23:05:19.223Z,39.97
2018-02-08T23:07:48.407Z,39.40
2018-02-08T23:10:17.293Z,37.50
2018-02-08T23:12:46.140Z,36.23
2018-02-08T23:15:14.973Z,37.50
2018-02-08T23:17:44.291Z,39.30
2018-02-08T23:20:13.527Z,38.20
2018-02-08T23:22:42.355Z,37.63
2018-02-08T23:25:12.004Z,40.23
2018-02-08T23:27:40.880Z,39.63
2018-02-08T23:30:09.713Z,41.80
2018-02-08T23:32:38.587Z,38.70
2018-02-08T23:35:07.449Z,34.70
2018-02-08T23:37:36.291Z,40.03
2018-02-08T23:40:05.213Z,34.87
2018-02-08T23:42:34.127Z,34.10
2018-02-08T23:45:02.977Z,35.70
2018-02-08T23:47:31.851Z,34.00
2018-02-08T23:50:01.605Z,35.00
2018-02-08T23:52:30.483Z,41.07
2018-02-08T23:54:59.357Z,37.70
2018-02-08T23:57:28.245Z,39.17
2018-02-08T23:59:57.080Z,35.80
